KEWR/EWR METAR and TAF weather

Enter ICAO airport designator
Station Type Date Time Source
KEWR METAR 2021/04/13 21:51 UTC NOAA

KEWR 132151Z VRB03KT 10SM FEW045 FEW250 18/04 A3001 RMK AO2 SLP162 T01830044


Station Type Date Time Source
KEWR Decoded METAR 2021/04/13 21:51 UTC NOAA

NEWARK INTERNATIONAL AIRPORT, NJ, United States (KEWR) 40-41N 74-10W 7M
Apr 13, 2021 - 05:51 PM EDT / 2021.04.13 2151 UTC
Wind: Variable at 3 MPH (3 KT):0
Visibility: 10 mile(s):0
Sky conditions: mostly clear
Temperature: 64.9 F (18.3 C)
Dew Point: 39.9 F (4.4 C)
Relative Humidity: 39%
Pressure (altimeter): 30.01 in. Hg (1016 hPa)
ob: KEWR 132151Z VRB03KT 10SM FEW045 FEW250 18/04 A3001 RMK AO2 SLP162 T01830044
cycle: 22

Station Type Date Time Source
KEWR TAF 2021/04/13 20:51 UTC NOAA

TAF
AMD KEWR 131949Z 1320/1424 01007KT P6SM FEW045
FM132300 28006KT P6SM FEW045
FM140100 25006KT P6SM FEW045
FM140500 16005KT P6SM SCT045
FM140700 22005KT P6SM BKN045
FM141300 28008KT P6SM SCT045
FM141600 25007KT P6SM SCT045 BKN150
FM141800 23008KT P6SM BKN050

Example: see airport list